createdAt,value
2019-04-27T00:00:34.562Z,93.1
2019-04-27T00:01:48.976Z,93.6
2019-04-27T00:03:02.931Z,93.7
2019-04-27T00:04:17.267Z,93.4
2019-04-27T00:05:31.344Z,93.4
2019-04-27T00:06:45.544Z,93.6
2019-04-27T00:07:59.715Z,92.4
2019-04-27T00:09:13.939Z,91.5
2019-04-27T00:10:28.103Z,91.3
2019-04-27T00:11:42.317Z,91.5
2019-04-27T00:14:10.773Z,91.4
2019-04-27T00:15:24.912Z,91.7
2019-04-27T00:16:39.142Z,92.1
2019-04-27T00:17:53.231Z,91.4
2019-04-27T00:19:07.421Z,92.3
2019-04-27T00:20:21.612Z,93.2
2019-04-27T00:21:35.836Z,94.3
2019-04-27T00:22:50.093Z,94.7
2019-04-27T00:24:04.254Z,94.3
2019-04-27T00:25:18.387Z,94.2
2019-04-27T00:26:32.589Z,94.4
2019-04-27T00:27:46.780Z,93.2
2019-04-27T00:29:01.012Z,93.7
2019-04-27T00:30:19.631Z,93
2019-04-27T00:31:29.395Z,93.3
2019-04-27T00:32:43.558Z,93.8
2019-04-27T00:33:59.705Z,93.6
2019-04-27T00:35:11.967Z,93.6
2019-04-27T00:36:26.272Z,93.2
2019-04-27T00:37:40.345Z,93.2
2019-04-27T00:38:54.684Z,93.5
2019-04-27T00:40:08.732Z,93
2019-04-27T00:41:22.983Z,93.2
2019-04-27T00:42:37.138Z,93.5
2019-04-27T00:43:51.339Z,93.2
2019-04-27T00:45:05.552Z,93.6
2019-04-27T00:46:19.728Z,94.5
2019-04-27T00:47:33.955Z,93.9
2019-04-27T00:48:48.279Z,93.9
2019-04-27T00:51:19.186Z,93.6
2019-04-27T00:52:30.743Z,93.2
2019-04-27T00:53:44.982Z,93.8
2019-04-27T00:55:03.682Z,93.2
2019-04-27T00:56:13.459Z,93.6
2019-04-27T00:57:27.552Z,93.6
2019-04-27T00:58:41.781Z,93.2
2019-04-27T00:59:55.927Z,93.8
2019-04-27T01:01:10.171Z,93.8
2019-04-27T01:02:24.337Z,94
2019-04-27T01:03:38.546Z,94.7
2019-04-27T01:04:52.702Z,93.8
2019-04-27T01:06:06.959Z,94.4
2019-04-27T01:07:21.150Z,94.5
2019-04-27T01:08:35.457Z,94.7
2019-04-27T01:09:49.504Z,94.3
2019-04-27T01:11:03.890Z,94.3
2019-04-27T01:12:19.850Z,95.3
2019-04-27T01:13:32.258Z,95.7
2019-04-27T01:14:46.293Z,95.6
2019-04-27T01:16:00.522Z,95.1
2019-04-27T01:17:14.709Z,95.2
2019-04-27T01:18:28.902Z,94.6
2019-04-27T01:19:43.618Z,95
2019-04-27T01:20:57.334Z,94.8
2019-04-27T01:22:11.585Z,95
2019-04-27T01:23:25.768Z,95.1
2019-04-27T01:24:39.956Z,95.1
2019-04-27T01:25:54.646Z,94.8
2019-04-27T01:27:08.264Z,94.8
2019-04-27T01:28:22.576Z,95
2019-04-27T01:29:36.661Z,95.5
2019-04-27T01:30:50.870Z,95.6
2019-04-27T01:32:05.062Z,95.2
2019-04-27T01:33:19.448Z,94.9
2019-04-27T01:34:33.539Z,95.4
2019-04-27T01:35:47.672Z,95
2019-04-27T01:37:01.865Z,94.9
2019-04-27T01:38:16.088Z,95.6
2019-04-27T01:39:30.348Z,95.6
2019-04-27T01:40:44.464Z,95.3
2019-04-27T01:41:58.706Z,95.1
2019-04-27T01:43:12.895Z,95.5
2019-04-27T01:44:27.133Z,96.2
2019-04-27T01:45:41.290Z,96
2019-04-27T01:46:55.567Z,96.7
2019-04-27T01:48:09.725Z,96.6
2019-04-27T01:49:23.965Z,95.8
2019-04-27T01:50:38.236Z,95.5
2019-04-27T01:53:06.871Z,95.2
2019-04-27T01:54:20.715Z,95.5
2019-04-27T01:55:34.924Z,95.5
2019-04-27T01:56:49.155Z,95.5
2019-04-27T01:58:03.313Z,95.1
2019-04-27T01:59:17.520Z,94.9
2019-04-27T02:00:31.840Z,95
2019-04-27T02:01:46.020Z,95.1
2019-04-27T02:03:00.143Z,95
2019-04-27T02:04:14.334Z,95.3
2019-04-27T02:05:28.670Z,94.8
2019-04-27T02:06:42.868Z,95
2019-04-27T02:07:56.964Z,95.2
2019-04-27T02:09:11.273Z,94.9
2019-04-27T02:10:25.418Z,95.4
2019-04-27T02:11:39.599Z,95.4
2019-04-27T02:12:53.786Z,94.9
2019-04-27T02:14:08.011Z,94.9
2019-04-27T02:15:22.212Z,95.2
2019-04-27T02:16:36.589Z,95.5
2019-04-27T02:17:50.645Z,95.6
2019-04-27T02:19:04.893Z,95.2
2019-04-27T02:20:19.061Z,94.9
2019-04-27T02:21:33.274Z,95.3
2019-04-27T02:22:47.606Z,95.4
2019-04-27T02:24:01.699Z,95.6
2019-04-27T02:25:15.993Z,95
2019-04-27T02:26:30.120Z,95.5
2019-04-27T02:27:44.319Z,95.7
2019-04-27T02:30:12.840Z,96
2019-04-27T02:31:27.050Z,96
2019-04-27T02:32:41.175Z,95.8
2019-04-27T02:33:55.389Z,95.4
2019-04-27T02:35:09.635Z,96
2019-04-27T02:36:23.849Z,96.4
2019-04-27T02:38:52.267Z,97.4
2019-04-27T02:40:06.566Z,98.4
2019-04-27T02:41:20.693Z,98.2
2019-04-27T02:42:35.017Z,98.6
2019-04-27T02:43:49.233Z,98.6
2019-04-27T02:45:03.363Z,98.5
2019-04-27T02:46:17.623Z,98.5
2019-04-27T02:47:31.785Z,98.3
2019-04-27T02:48:45.973Z,98.5
2019-04-27T02:50:00.265Z,98.3
2019-04-27T02:51:14.422Z,98.4
2019-04-27T02:52:28.688Z,99.3
2019-04-27T02:53:42.868Z,98.4
2019-04-27T02:54:57.032Z,98.3
2019-04-27T02:56:11.344Z,98.3
2019-04-27T02:57:25.487Z,98
2019-04-27T02:58:39.761Z,98
2019-04-27T02:59:53.873Z,98
2019-04-27T03:01:08.076Z,97.7
2019-04-27T03:02:22.322Z,96.8
2019-04-27T03:03:36.520Z,96.9
2019-04-27T03:04:50.743Z,97.4
2019-04-27T03:07:19.153Z,97.2
2019-04-27T03:08:33.428Z,97.1
2019-04-27T03:09:47.583Z,97.4
2019-04-27T03:11:01.818Z,97
2019-04-27T03:12:16.034Z,97.2
2019-04-27T03:13:30.192Z,96.9
2019-04-27T03:14:44.499Z,98
2019-04-27T03:15:58.627Z,98.3
2019-04-27T03:17:12.820Z,98.6
2019-04-27T03:18:27.022Z,98
2019-04-27T03:19:41.211Z,98
2019-04-27T03:20:55.455Z,98.5
2019-04-27T03:22:09.676Z,98.1
2019-04-27T03:23:23.901Z,98.3
2019-04-27T03:24:38.092Z,98.7
2019-04-27T03:25:58.445Z,97.9
2019-04-27T03:27:06.484Z,98
2019-04-27T03:28:20.700Z,98
2019-04-27T03:29:34.945Z,98
2019-04-27T03:30:49.198Z,97.8
2019-04-27T03:32:03.327Z,97.1
2019-04-27T03:33:17.524Z,97.8
2019-04-27T03:34:32.129Z,97.3
2019-04-27T03:35:45.903Z,97
2019-04-27T03:37:00.120Z,97
2019-04-27T03:38:14.318Z,97.2
2019-04-27T03:39:28.594Z,97.5
2019-04-27T03:40:42.746Z,98.1
2019-04-27T03:41:56.964Z,98.2
2019-04-27T03:43:11.164Z,97.8
2019-04-27T03:44:25.371Z,97.5
2019-04-27T03:45:39.608Z,97
2019-04-27T03:46:53.794Z,97
2019-04-27T03:48:08.073Z,96.9
2019-04-27T03:49:22.189Z,97.2
2019-04-27T03:50:36.659Z,97
2019-04-27T03:51:50.661Z,96.9
2019-04-27T03:53:04.846Z,96.3
2019-04-27T03:54:19.042Z,95.6
2019-04-27T03:55:33.205Z,95.6
2019-04-27T03:56:47.533Z,95.8
2019-04-27T03:58:01.611Z,96.1
2019-04-27T03:59:15.836Z,96.2
2019-04-27T04:00:30.055Z,96.7
2019-04-27T04:01:44.338Z,96.7
2019-04-27T04:02:58.617Z,96.5
2019-04-27T04:04:12.665Z,96.5
2019-04-27T04:05:27.015Z,95.8
2019-04-27T04:06:41.128Z,95.6
2019-04-27T04:07:55.437Z,95.5
2019-04-27T04:09:09.576Z,95
2019-04-27T04:10:23.730Z,95.1
2019-04-27T04:11:37.972Z,94.7
2019-04-27T04:12:52.155Z,94.6
2019-04-27T04:14:06.374Z,94.9
2019-04-27T04:15:20.572Z,94.2
2019-04-27T04:16:34.749Z,93.9
2019-04-27T04:17:48.969Z,93.4
2019-04-27T04:19:03.249Z,93.4
2019-04-27T04:20:17.465Z,93.3
2019-04-27T04:21:31.577Z,93.3
2019-04-27T04:22:45.769Z,93
2019-04-27T04:23:59.988Z,92.6
2019-04-27T04:25:14.191Z,92.2
2019-04-27T04:26:29.872Z,91.9
2019-04-27T04:27:42.728Z,92
2019-04-27T04:28:56.955Z,92.1
2019-04-27T04:30:11.191Z,91.7
2019-04-27T04:31:25.359Z,91.5
2019-04-27T04:33:53.618Z,92
2019-04-27T04:35:08.103Z,91.9
2019-04-27T04:36:22.017Z,91.8
2019-04-27T04:37:36.230Z,91.4
2019-04-27T04:38:50.610Z,91.4
2019-04-27T04:40:04.600Z,91.2
2019-04-27T04:41:18.822Z,90.8
2019-04-27T04:42:33.003Z,90.9
2019-04-27T04:43:47.185Z,90.9
2019-04-27T04:45:01.424Z,90.8
2019-04-27T04:46:15.667Z,90.6
2019-04-27T04:47:29.855Z,90.1
2019-04-27T04:48:43.957Z,89.9
2019-04-27T04:49:58.708Z,89.7
2019-04-27T04:51:12.357Z,89.8
2019-04-27T04:52:26.667Z,89.3
2019-04-27T04:53:44.168Z,89.7
2019-04-27T04:54:54.972Z,88.9
2019-04-27T04:56:09.265Z,87.6
2019-04-27T04:57:23.489Z,87.5
2019-04-27T04:58:37.444Z,85.9
2019-04-27T04:59:51.672Z,86.1
2019-04-27T05:01:05.900Z,85.5
2019-04-27T05:02:20.011Z,86.2
2019-04-27T05:03:34.225Z,85.3
2019-04-27T05:04:48.405Z,84.7
2019-04-27T05:06:02.545Z,84.3
2019-04-27T05:07:16.721Z,84.3
2019-04-27T05:08:30.994Z,81.4
2019-04-27T05:09:45.104Z,80.5
2019-04-27T05:11:05.301Z,79.9
2019-04-27T05:12:13.434Z,78.3
2019-04-27T05:13:27.596Z,77.8
2019-04-27T05:14:44.033Z,77.2
2019-04-27T05:17:10.093Z,76.7
2019-04-27T05:18:24.281Z,74
2019-04-27T05:19:38.468Z,72.6
2019-04-27T05:20:52.581Z,71.6
2019-04-27T05:22:06.847Z,72.7
2019-04-27T05:23:20.909Z,71.3
2019-04-27T05:24:35.112Z,71.7
2019-04-27T05:25:49.284Z,71.4
2019-04-27T05:27:03.418Z,70.5
2019-04-27T05:28:17.717Z,70.6
2019-04-27T05:29:31.656Z,68.7
2019-04-27T05:30:45.868Z,68.7
2019-04-27T05:31:59.963Z,66.5
2019-04-27T05:33:14.075Z,68.9
2019-04-27T05:34:28.227Z,67.9
2019-04-27T05:35:42.353Z,69.4
2019-04-27T05:36:56.485Z,67.2
2019-04-27T05:38:10.643Z,68.9
2019-04-27T05:39:24.993Z,67.6
2019-04-27T05:40:38.925Z,65.6
2019-04-27T05:41:53.059Z,65.8
2019-04-27T05:43:07.281Z,64.4
2019-04-27T05:44:21.409Z,64.9
2019-04-27T05:45:35.453Z,65.1
2019-04-27T05:46:49.624Z,64.9
2019-04-27T05:48:03.803Z,63.5
2019-04-27T05:49:17.903Z,66.5
2019-04-27T05:50:32.093Z,70.3
2019-04-27T05:51:46.136Z,70.1
2019-04-27T05:53:00.254Z,72.1
2019-04-27T05:54:14.371Z,70.7
2019-04-27T05:55:28.829Z,66
2019-04-27T05:56:42.727Z,65.5
2019-04-27T05:57:56.754Z,65.9
2019-04-27T05:59:10.871Z,67
2019-04-27T06:00:25.084Z,67.7
2019-04-27T06:01:39.201Z,67.6
2019-04-27T06:02:53.276Z,69.2
2019-04-27T06:04:07.380Z,69.9
2019-04-27T06:05:21.531Z,71.6
2019-04-27T06:06:35.656Z,75.5
2019-04-27T06:07:49.781Z,73.2
2019-04-27T06:09:03.874Z,72.6
2019-04-27T06:10:18.042Z,71.1
2019-04-27T06:11:32.148Z,65.1
2019-04-27T06:12:46.363Z,65.5
2019-04-27T06:14:00.472Z,63.4
2019-04-27T06:15:19.990Z,65.2
2019-04-27T06:16:28.658Z,63.2
2019-04-27T06:17:42.823Z,63.1
2019-04-27T06:18:56.992Z,64.3
2019-04-27T06:20:10.980Z,62.2
2019-04-27T06:21:25.091Z,61.9
2019-04-27T06:22:39.208Z,61
2019-04-27T06:23:53.311Z,62.8
2019-04-27T06:25:07.465Z,61.9
2019-04-27T06:26:21.729Z,64.6
2019-04-27T06:27:35.612Z,65.7
2019-04-27T06:30:03.869Z,63.1
2019-04-27T06:31:17.952Z,65
2019-04-27T06:32:32.099Z,67.6
2019-04-27T06:33:46.181Z,66.2
2019-04-27T06:35:00.340Z,64.5
2019-04-27T06:36:14.330Z,68.2
2019-04-27T06:37:28.465Z,70.6
2019-04-27T06:38:42.556Z,69.3
2019-04-27T06:39:56.673Z,70.5
2019-04-27T06:41:10.824Z,70.8
2019-04-27T06:42:25.091Z,71.9
2019-04-27T06:43:39.028Z,71.1
2019-04-27T06:44:53.146Z,72.4
2019-04-27T06:46:07.251Z,73.6
2019-04-27T06:47:21.467Z,71
2019-04-27T06:48:35.491Z,69.8
2019-04-27T06:49:50.065Z,71.7
2019-04-27T06:51:04.225Z,69.5
2019-04-27T06:52:17.872Z,67.6
2019-04-27T06:53:32.120Z,69
2019-04-27T06:54:46.148Z,67.5
2019-04-27T06:56:00.248Z,66.8
2019-04-27T06:57:14.341Z,68.6
2019-04-27T06:58:28.470Z,65.7
2019-04-27T06:59:42.583Z,69.1
2019-04-27T07:00:56.704Z,65.8
2019-04-27T07:02:11.579Z,70.4
2019-04-27T07:03:25.007Z,70.8
2019-04-27T07:04:39.110Z,70.4
2019-04-27T07:05:53.222Z,72.2
2019-04-27T07:07:07.602Z,71.4
2019-04-27T07:08:21.731Z,73
2019-04-27T07:09:35.598Z,69.8
2019-04-27T07:10:49.680Z,71.5
2019-04-27T07:12:03.820Z,73.4
2019-04-27T07:13:18.054Z,74.1
2019-04-27T07:14:32.131Z,70.4
2019-04-27T07:15:46.279Z,72.5
2019-04-27T07:17:00.341Z,72
2019-04-27T07:19:28.601Z,72.8
2019-04-27T07:20:42.695Z,72.1
2019-04-27T07:21:56.820Z,74.5
2019-04-27T07:23:11.041Z,72
2019-04-27T07:24:25.089Z,72.4
2019-04-27T07:25:39.411Z,71.8
2019-04-27T07:28:08.828Z,70.8
2019-04-27T07:29:21.676Z,73.4
2019-04-27T07:30:35.760Z,71.9
2019-04-27T07:31:49.861Z,71.9
2019-04-27T07:33:03.990Z,73.2
2019-04-27T07:34:18.145Z,75.2
2019-04-27T07:35:32.279Z,74.2
2019-04-27T07:36:46.381Z,75.3
2019-04-27T07:38:00.554Z,73.4
2019-04-27T07:39:14.638Z,76.3
2019-04-27T07:40:28.955Z,73.5
2019-04-27T07:41:43.026Z,74.6
2019-04-27T07:42:57.049Z,75.3
2019-04-27T07:44:11.193Z,74.4
2019-04-27T07:45:25.323Z,73.6
2019-04-27T07:46:39.560Z,72
2019-04-27T07:47:53.616Z,74.4
2019-04-27T07:49:07.825Z,76.2
2019-04-27T07:50:21.854Z,75
2019-04-27T07:51:36.689Z,76.5
2019-04-27T07:52:50.229Z,77.8
2019-04-27T07:54:04.296Z,74.3
2019-04-27T07:55:18.421Z,75.7
2019-04-27T07:56:32.606Z,75.9
2019-04-27T07:57:46.745Z,78.6
2019-04-27T07:59:00.823Z,78.2
2019-04-27T08:00:14.947Z,80
2019-04-27T08:01:29.107Z,80
2019-04-27T08:02:43.215Z,82.6
2019-04-27T08:03:57.396Z,80.1
2019-04-27T08:05:11.499Z,85.4
2019-04-27T08:06:25.678Z,85.5
2019-04-27T08:07:39.792Z,85.1
2019-04-27T08:08:53.927Z,85.9
2019-04-27T08:10:08.075Z,87.2
2019-04-27T08:11:22.340Z,86.9
2019-04-27T08:12:36.377Z,87.5
2019-04-27T08:13:50.619Z,89.6
2019-04-27T08:15:04.798Z,89.6
2019-04-27T08:16:18.921Z,89.4
2019-04-27T08:17:32.946Z,90.8
2019-04-27T08:18:47.165Z,90.4
2019-04-27T08:20:01.214Z,90.7
2019-04-27T08:21:15.447Z,90.3
2019-04-27T08:22:29.529Z,91.2
2019-04-27T08:23:43.664Z,91.5
2019-04-27T08:24:57.877Z,92.9
2019-04-27T08:27:26.139Z,92.7
2019-04-27T08:28:44.193Z,94
2019-04-27T08:29:57.915Z,94.5
2019-04-27T08:31:08.579Z,94
2019-04-27T08:32:23.013Z,93.6
2019-04-27T08:33:39.101Z,94.2
2019-04-27T08:34:51.043Z,95.1
2019-04-27T08:36:05.294Z,95
2019-04-27T08:37:19.352Z,95.4
2019-04-27T08:38:33.537Z,94.4
2019-04-27T08:39:49.358Z,94
2019-04-27T08:41:01.826Z,94.1
2019-04-27T08:42:15.982Z,93.4
2019-04-27T08:43:30.131Z,94
2019-04-27T08:44:44.288Z,94
2019-04-27T08:45:58.431Z,93.8
2019-04-27T08:47:12.579Z,94
2019-04-27T08:48:26.875Z,93.9
2019-04-27T08:49:40.855Z,92.3
2019-04-27T08:50:55.015Z,91.7
2019-04-27T08:52:09.224Z,92
2019-04-27T08:53:23.247Z,92
2019-04-27T08:54:37.412Z,91.6
2019-04-27T08:55:51.710Z,91.8
2019-04-27T08:57:05.677Z,92.2
2019-04-27T08:58:19.813Z,90.8
2019-04-27T08:59:33.948Z,90.2
2019-04-27T09:00:48.199Z,91.9
2019-04-27T09:02:02.257Z,92.1
2019-04-27T09:03:16.471Z,91.3
2019-04-27T09:04:30.573Z,91.1
2019-04-27T09:05:44.669Z,92.8
2019-04-27T09:06:58.935Z,91.2
2019-04-27T09:08:12.953Z,92
2019-04-27T09:09:27.187Z,91.3
2019-04-27T09:10:41.266Z,92.2
2019-04-27T09:11:55.395Z,92
2019-04-27T09:13:09.577Z,92
2019-04-27T09:14:23.686Z,91.7
2019-04-27T09:15:37.891Z,92.4
2019-04-27T09:16:52.009Z,91.5
2019-04-27T09:18:06.207Z,91.7
2019-04-27T09:19:20.437Z,90
2019-04-27T09:20:34.399Z,89.5
2019-04-27T09:21:48.637Z,89.3
2019-04-27T09:23:02.646Z,89.4
2019-04-27T09:24:16.858Z,90.4
2019-04-27T09:25:31.043Z,90.9
2019-04-27T09:26:45.185Z,90.7
2019-04-27T09:27:59.292Z,90.1
2019-04-27T09:29:13.322Z,89.3
2019-04-27T09:30:27.509Z,90.7
2019-04-27T09:31:41.623Z,91
2019-04-27T09:32:55.773Z,89.4
2019-04-27T09:34:09.921Z,89
2019-04-27T09:35:24.007Z,90
2019-04-27T09:36:38.149Z,87.8
2019-04-27T09:37:52.290Z,85.6
2019-04-27T09:39:06.447Z,85.3
2019-04-27T09:40:20.561Z,87.2
2019-04-27T09:41:34.721Z,88.5
2019-04-27T09:42:48.812Z,85.8
2019-04-27T09:44:02.922Z,83.9
2019-04-27T09:45:17.035Z,86
2019-04-27T09:46:31.183Z,86.8
2019-04-27T09:47:45.369Z,86.7
2019-04-27T09:48:59.503Z,88
2019-04-27T09:50:13.685Z,86.8
2019-04-27T09:51:27.668Z,86.6
2019-04-27T09:52:41.842Z,87.5
2019-04-27T09:55:10.093Z,87.1
2019-04-27T09:56:25.541Z,86.9
2019-04-27T09:57:38.314Z,86.9
2019-04-27T09:58:52.465Z,87.9
2019-04-27T10:00:06.710Z,88
2019-04-27T10:01:20.731Z,89.8
2019-04-27T10:02:34.900Z,89.5
2019-04-27T10:03:48.978Z,89.8
2019-04-27T10:05:03.089Z,90
2019-04-27T10:06:17.197Z,91.4
2019-04-27T10:07:31.453Z,91.5
2019-04-27T10:08:45.480Z,93
2019-04-27T10:09:59.638Z,92.5
2019-04-27T10:11:13.872Z,91
2019-04-27T10:12:27.925Z,90.9
2019-04-27T10:13:42.080Z,92.6
2019-04-27T10:14:56.197Z,91.7
2019-04-27T10:16:10.362Z,90.9
2019-04-27T10:17:24.494Z,91.9
2019-04-27T10:18:38.665Z,93
2019-04-27T10:19:52.811Z,91.9
2019-04-27T10:21:06.979Z,93.8
2019-04-27T10:22:21.088Z,89
2019-04-27T10:23:35.393Z,90.2
2019-04-27T10:24:49.357Z,89.3
2019-04-27T10:26:03.588Z,91.8
2019-04-27T10:27:18.066Z,88.8
2019-04-27T10:28:31.788Z,89.3
2019-04-27T10:29:45.952Z,89.3
2019-04-27T10:31:00.102Z,90.2
2019-04-27T10:32:14.210Z,89.1
2019-04-27T10:33:28.422Z,89.7
2019-04-27T10:34:42.472Z,90.2
2019-04-27T10:35:56.637Z,87.9
2019-04-27T10:37:10.751Z,90.2
2019-04-27T10:38:24.905Z,89.2
2019-04-27T10:39:39.052Z,88.8
2019-04-27T10:40:53.441Z,89.2
2019-04-27T10:42:07.418Z,89.7
2019-04-27T10:43:21.528Z,89.4
2019-04-27T10:44:35.670Z,89.2
2019-04-27T10:45:49.753Z,89.5
2019-04-27T10:47:03.970Z,90.2
2019-04-27T10:48:18.031Z,90.5
2019-04-27T10:49:32.175Z,89.1
2019-04-27T10:50:46.326Z,89.6
2019-04-27T10:52:00.473Z,88.9
2019-04-27T10:53:14.736Z,88.4
2019-04-27T10:54:28.775Z,88
2019-04-27T10:55:42.884Z,87.5
2019-04-27T10:56:56.994Z,86.9
2019-04-27T10:58:11.214Z,88.9
2019-04-27T10:59:25.248Z,90.7
2019-04-27T11:00:39.520Z,92.7
2019-04-27T11:01:54.053Z,92.2
2019-04-27T11:03:07.680Z,91.5
2019-04-27T11:04:22.198Z,91.5
2019-04-27T11:05:35.951Z,92.3
2019-04-27T11:06:50.090Z,93.9
2019-04-27T11:08:04.350Z,94
2019-04-27T11:09:18.542Z,93.3
2019-04-27T11:10:32.861Z,94.2
2019-04-27T11:11:46.681Z,93.7
2019-04-27T11:14:15.081Z,92.8
2019-04-27T11:15:29.119Z,93.8
2019-04-27T11:16:43.280Z,93.4
2019-04-27T11:17:57.419Z,94.8
2019-04-27T11:19:11.650Z,94.4
2019-04-27T11:20:25.814Z,92
2019-04-27T11:21:39.878Z,92.9
2019-04-27T11:22:54.095Z,93.4
2019-04-27T11:24:08.176Z,93.8
2019-04-27T11:25:22.467Z,92.7
2019-04-27T11:26:36.550Z,94.4
2019-04-27T11:27:50.689Z,94
2019-04-27T11:29:04.815Z,94.3
2019-04-27T11:30:18.926Z,94.5
2019-04-27T11:31:33.234Z,94.3
2019-04-27T11:32:49.648Z,94.6
2019-04-27T11:34:03.347Z,94.5
2019-04-27T11:35:15.552Z,95.1
2019-04-27T11:36:29.798Z,94.6
2019-04-27T11:37:43.916Z,94
2019-04-27T11:38:58.096Z,92.7
2019-04-27T11:40:12.180Z,92.7
2019-04-27T11:41:26.320Z,93
2019-04-27T11:42:41.289Z,90
2019-04-27T11:43:54.670Z,91.8
2019-04-27T11:45:08.742Z,92.6
2019-04-27T11:46:22.913Z,92.7
2019-04-27T11:47:37.023Z,92.6
2019-04-27T11:48:51.152Z,91.6
2019-04-27T11:50:05.382Z,90
2019-04-27T11:51:19.434Z,90.1
2019-04-27T11:52:33.570Z,91.1
2019-04-27T11:53:47.724Z,91.2
2019-04-27T11:55:01.881Z,92
2019-04-27T11:57:30.223Z,93.6
2019-04-27T11:58:44.406Z,93.1
2019-04-27T11:59:58.468Z,93.4
2019-04-27T12:01:12.640Z,93.5
2019-04-27T12:02:26.779Z,92.7
2019-04-27T12:03:41.111Z,93.2
2019-04-27T12:04:55.108Z,94
2019-04-27T12:06:09.234Z,93.9
2019-04-27T12:07:23.396Z,95.3
2019-04-27T12:08:37.657Z,94.5
2019-04-27T12:09:51.764Z,95.1
2019-04-27T12:11:05.894Z,90.4
2019-04-27T12:12:20.089Z,91.9
2019-04-27T12:13:34.655Z,89.3
2019-04-27T12:14:48.358Z,90.2
2019-04-27T12:16:02.639Z,90.7
2019-04-27T12:17:16.669Z,88
2019-04-27T12:18:30.878Z,89.8
2019-04-27T12:19:45.016Z,89.8
2019-04-27T12:20:59.241Z,85.7
2019-04-27T12:22:13.484Z,86
2019-04-27T12:23:27.482Z,88.2
2019-04-27T12:24:41.619Z,89.5
2019-04-27T12:25:55.860Z,85.4
2019-04-27T12:27:10.005Z,83.8
2019-04-27T12:28:24.074Z,83.2
2019-04-27T12:29:38.257Z,87.2
2019-04-27T12:30:52.414Z,86.8
2019-04-27T12:32:06.623Z,89.2
2019-04-27T12:34:35.153Z,81.3
2019-04-27T12:35:48.981Z,85.3
2019-04-27T12:37:03.191Z,86.2
2019-04-27T12:38:19.483Z,83
2019-04-27T12:39:31.424Z,87.3
2019-04-27T12:40:45.610Z,88.7
2019-04-27T12:41:59.862Z,88.5
2019-04-27T12:43:13.995Z,90.3
2019-04-27T12:44:28.060Z,89.5
2019-04-27T12:45:42.348Z,86.6
2019-04-27T12:48:10.612Z,89.6
2019-04-27T12:49:24.712Z,88.2
2019-04-27T12:50:38.853Z,86
2019-04-27T12:51:53.072Z,87.3
2019-04-27T12:53:07.171Z,87.3
2019-04-27T12:54:21.337Z,88
2019-04-27T12:55:35.582Z,80.6
2019-04-27T12:56:49.606Z,85.3
2019-04-27T12:58:03.741Z,85.6
2019-04-27T12:59:17.886Z,87
2019-04-27T13:00:32.139Z,81.7
2019-04-27T13:01:46.168Z,84.4
2019-04-27T13:03:04.529Z,81.5
2019-04-27T13:04:14.442Z,76.8
2019-04-27T13:05:28.578Z,79.8
2019-04-27T13:06:42.739Z,80.1
2019-04-27T13:07:56.831Z,78.6
2019-04-27T13:09:10.996Z,83.9
2019-04-27T13:10:25.089Z,78.6
2019-04-27T13:11:39.226Z,85.7
2019-04-27T13:12:53.364Z,86.3
2019-04-27T13:14:07.514Z,85.6
2019-04-27T13:15:21.643Z,80.6
2019-04-27T13:16:35.778Z,84.8
2019-04-27T13:17:49.912Z,87.7
2019-04-27T13:19:04.110Z,84.1
2019-04-27T13:20:18.373Z,83.2
2019-04-27T13:21:32.386Z,87.5
2019-04-27T13:22:46.532Z,87.3
2019-04-27T13:25:14.817Z,85.6
2019-04-27T13:26:29.032Z,84.7
2019-04-27T13:27:43.854Z,85.1
2019-04-27T13:28:57.275Z,84.4
2019-04-27T13:30:11.375Z,81.4
2019-04-27T13:31:25.508Z,84.2
2019-04-27T13:32:39.723Z,84.1
2019-04-27T13:33:53.883Z,82.7
2019-04-27T13:35:08.047Z,81.6
2019-04-27T13:36:22.064Z,83
2019-04-27T13:37:36.448Z,78.2
2019-04-27T13:38:50.400Z,81.4
2019-04-27T13:40:04.480Z,84.4
2019-04-27T13:41:18.722Z,78.2
2019-04-27T13:42:32.752Z,81.2
2019-04-27T13:43:46.895Z,81.2
2019-04-27T13:45:01.056Z,73.2
2019-04-27T13:46:20.377Z,72.1
2019-04-27T13:47:29.304Z,74.3
2019-04-27T13:48:43.564Z,75.5
2019-04-27T13:49:57.566Z,70.2
2019-04-27T13:51:11.678Z,74.8
2019-04-27T13:52:25.810Z,67.7
2019-04-27T13:53:40.095Z,71.9
2019-04-27T13:54:54.238Z,74.5
2019-04-27T13:56:08.568Z,75
2019-04-27T13:57:22.284Z,75.4
2019-04-27T13:58:36.476Z,74.2
2019-04-27T13:59:50.633Z,70.7
2019-04-27T14:01:04.694Z,74.8
2019-04-27T14:02:18.840Z,75.1
2019-04-27T14:03:32.942Z,73.1
2019-04-27T14:04:47.096Z,70.7
2019-04-27T14:06:01.119Z,73.2
2019-04-27T14:07:15.319Z,72.7
2019-04-27T14:08:29.321Z,71.2
2019-04-27T14:09:43.435Z,70.2
2019-04-27T14:10:57.559Z,69.5
2019-04-27T14:12:11.669Z,68.8
2019-04-27T14:13:25.787Z,76.5
2019-04-27T14:14:40.331Z,77.6
2019-04-27T14:15:54.009Z,70.3
2019-04-27T14:17:08.114Z,74.7
2019-04-27T14:18:22.250Z,75.6
2019-04-27T14:19:36.365Z,72.9
2019-04-27T14:20:50.494Z,75.3
2019-04-27T14:22:04.651Z,77.4
2019-04-27T14:23:18.683Z,72.6
2019-04-27T14:24:32.777Z,78.1
2019-04-27T14:25:46.960Z,74.1
2019-04-27T14:27:01.020Z,77.3
2019-04-27T14:28:15.150Z,76.5
2019-04-27T14:29:29.292Z,74.1
2019-04-27T14:30:43.422Z,71.5
2019-04-27T14:31:57.526Z,74.5
2019-04-27T14:33:11.620Z,69.6
2019-04-27T14:34:25.742Z,76.3
2019-04-27T14:35:39.861Z,73.4
2019-04-27T14:36:54.007Z,70.4
2019-04-27T14:38:08.202Z,70.8
2019-04-27T14:39:22.201Z,76.2
2019-04-27T14:40:36.338Z,72.4
2019-04-27T14:41:50.477Z,74.3
2019-04-27T14:43:04.609Z,75.1
2019-04-27T14:44:20.380Z,74.6
2019-04-27T14:45:33.420Z,73
2019-04-27T14:46:47.026Z,73.5
2019-04-27T14:48:01.062Z,72
2019-04-27T14:49:18.686Z,75.9
2019-04-27T14:50:31.898Z,78.6
2019-04-27T14:51:43.397Z,73.1
2019-04-27T14:52:57.507Z,73.4
2019-04-27T14:54:11.798Z,69.2
2019-04-27T14:55:26.024Z,70.5
2019-04-27T14:56:39.851Z,70.4
2019-04-27T14:57:54.045Z,69.8
2019-04-27T14:59:08.081Z,69.5
2019-04-27T15:00:22.212Z,64
2019-04-27T15:01:36.475Z,65.9
2019-04-27T15:02:50.637Z,64.7
2019-04-27T15:04:04.582Z,64
2019-04-27T15:05:18.651Z,64.7
2019-04-27T15:06:32.792Z,60.2
2019-04-27T15:07:46.876Z,61
2019-04-27T15:09:01.289Z,64
2019-04-27T15:10:15.101Z,59.6
2019-04-27T15:11:29.221Z,64.1
2019-04-27T15:12:43.277Z,69.4
2019-04-27T15:13:57.400Z,66.3
2019-04-27T15:15:11.477Z,66.1
2019-04-27T15:16:25.677Z,67.2
2019-04-27T15:17:39.839Z,69.2
2019-04-27T15:18:53.775Z,67.3
2019-04-27T15:20:07.922Z,65.8
2019-04-27T15:21:22.032Z,61.8
2019-04-27T15:22:36.088Z,57.4
2019-04-27T15:23:50.285Z,54.8
2019-04-27T15:25:04.304Z,54.5
2019-04-27T15:26:18.529Z,51.4
2019-04-27T15:27:32.612Z,56.3
2019-04-27T15:28:46.578Z,55
2019-04-27T15:30:00.632Z,63.1
2019-04-27T15:31:14.741Z,60.4
2019-04-27T15:32:29.012Z,63.1
2019-04-27T15:33:42.937Z,70.5
2019-04-27T15:34:57.042Z,65.7
2019-04-27T15:36:11.153Z,67.5
2019-04-27T15:37:25.236Z,67
2019-04-27T15:38:39.416Z,73.6
2019-04-27T15:39:53.482Z,71.5
2019-04-27T15:41:07.611Z,74.5
2019-04-27T15:42:21.736Z,73.8
2019-04-27T15:43:37.521Z,72.3
2019-04-27T15:46:04.147Z,73.2
2019-04-27T15:47:18.280Z,73
2019-04-27T15:48:32.449Z,78.3
2019-04-27T15:49:46.573Z,78.7
2019-04-27T15:51:00.869Z,84.6
2019-04-27T15:52:14.972Z,86.5
2019-04-27T15:53:29.071Z,89.5
2019-04-27T15:54:43.238Z,91.4
2019-04-27T15:56:00.334Z,91.5
2019-04-27T15:57:11.604Z,94
2019-04-27T15:58:25.767Z,93.7
2019-04-27T15:59:39.977Z,94.6
2019-04-27T16:00:54.177Z,94.8
2019-04-27T16:02:08.295Z,94.8
2019-04-27T16:03:22.493Z,96.6
2019-04-27T16:04:36.652Z,96.8
2019-04-27T16:05:50.906Z,96.9
2019-04-27T16:07:05.047Z,97.1
2019-04-27T16:08:19.240Z,96.9
2019-04-27T16:09:33.449Z,96.9
2019-04-27T16:10:47.577Z,97
2019-04-27T16:12:01.813Z,97.5
2019-04-27T16:13:15.931Z,96.9
2019-04-27T16:14:30.116Z,97.7
2019-04-27T16:15:49.695Z,97
2019-04-27T16:16:58.537Z,97.7
2019-04-27T16:18:12.669Z,98.3
2019-04-27T16:19:26.865Z,97.5
2019-04-27T16:20:41.146Z,97.7
2019-04-27T16:21:55.231Z,97.1
2019-04-27T16:23:09.416Z,97.6
2019-04-27T16:24:23.600Z,96.9
2019-04-27T16:25:37.860Z,97
2019-04-27T16:26:52.101Z,97.7
2019-04-27T16:28:06.170Z,98.2
2019-04-27T16:29:20.510Z,98.1
2019-04-27T16:31:48.738Z,98.1
2019-04-27T16:33:02.926Z,98.9
2019-04-27T16:34:17.233Z,98.3
2019-04-27T16:35:31.369Z,98.6
2019-04-27T16:36:45.587Z,98.6
2019-04-27T16:37:59.704Z,98.7
2019-04-27T16:39:13.869Z,97.9
2019-04-27T16:40:28.108Z,98.1
2019-04-27T16:41:42.394Z,98.5
2019-04-27T16:42:56.421Z,98.6
2019-04-27T16:44:10.658Z,98.1
2019-04-27T16:45:24.801Z,97.9
2019-04-27T16:46:38.981Z,97.8
2019-04-27T16:47:53.263Z,97.6
2019-04-27T16:49:07.374Z,98
2019-04-27T16:50:21.736Z,97.6
2019-04-27T16:51:35.810Z,97.6
2019-04-27T16:52:49.970Z,97.6
2019-04-27T16:54:04.173Z,98
2019-04-27T16:55:18.311Z,97.6
2019-04-27T16:56:32.568Z,97
2019-04-27T16:57:50.417Z,97.5
2019-04-27T16:59:04.430Z,97
2019-04-27T17:00:15.046Z,97.7